KPUJ

Paulding Northwest Atlanta Airport

Atlanta, Georgia, USA
METAR KPUJ 151555Z AUTO 24008KT 200V260 10SM SCT021 OVC048 09/05 A2993 RMK AO2
Observed Flight Rules
Dec-15 @ 15:55 UTC (8 minutes ago) Visual Flight Rules
Wind Visibility Clouds
240° at 8 knots 10 miles
  • Scattered at 2,100' AGL
  • Overcast at 4,800' AGL
Temperatures Readings
Current 9°C / 48°F
Dewpoint 5°C / 41°F
Humidity 76%
Altimeter 29.93" Hg
Pressure 1014 hPa
Elevation 393
METAR KPUJ 151555Z AUTO 24008KT 200V260 10SM SCT021 OVC048 09/05 A2993 RMK AO2
Observed Flight Rules
Dec-15 @ 15:55 UTC
(8 minutes ago)
VFR
Wind Visibility
240° at 8 knots 10 miles
Clouds
  • Scattered at 2,100' AGL
  • Overcast at 4,800' AGL
Temperature Dewpoint
9°C / 48°F 5°C / 41°F
Humidity Altimeter Pressure
76% 29.93" Hg 1014 hPa